createdAt,value
2023-02-19T00:01:26.623Z,86.07
2023-02-19T00:03:56.314Z,86.20
2023-02-19T00:06:24.827Z,85.79
2023-02-19T00:08:52.125Z,86.07
2023-02-19T00:11:21.169Z,86.09
2023-02-19T00:13:52.909Z,85.85
2023-02-19T00:16:22.756Z,85.73
2023-02-19T00:18:50.522Z,85.58
2023-02-19T00:21:18.409Z,85.87
2023-02-19T00:23:49.840Z,85.73
2023-02-19T00:26:18.880Z,85.65
2023-02-19T00:28:51.155Z,85.70
2023-02-19T00:31:21.550Z,85.92
2023-02-19T00:33:51.304Z,85.68
2023-02-19T00:36:19.258Z,85.89
2023-02-19T00:38:46.923Z,85.76
2023-02-19T00:41:21.419Z,86.01
2023-02-19T00:43:52.112Z,85.66
2023-02-19T00:46:22.463Z,85.86
2023-02-19T00:48:50.602Z,85.93
2023-02-19T00:51:17.833Z,86.41
2023-02-19T00:53:45.393Z,86.11
2023-02-19T00:56:13.242Z,86.26
2023-02-19T00:58:40.736Z,86.45
2023-02-19T01:01:11.207Z,86.34
2023-02-19T01:03:39.426Z,86.74
2023-02-19T01:06:08.505Z,86.80
2023-02-19T01:08:36.123Z,86.45
2023-02-19T01:11:05.703Z,86.86
2023-02-19T01:13:34.036Z,87.05
2023-02-19T01:16:06.160Z,86.91
2023-02-19T01:18:35.838Z,86.71
2023-02-19T01:21:07.399Z,86.73
2023-02-19T01:23:35.490Z,86.71
2023-02-19T01:26:05.886Z,87.19
2023-02-19T01:28:33.187Z,87.14
2023-02-19T01:31:02.685Z,87.44
2023-02-19T01:33:30.504Z,87.26
2023-02-19T01:35:59.553Z,87.45
2023-02-19T01:38:26.877Z,87.69
2023-02-19T01:40:57.853Z,87.87
2023-02-19T01:43:25.462Z,87.81
2023-02-19T01:45:53.072Z,87.38
2023-02-19T01:48:23.846Z,87.42
2023-02-19T01:50:54.790Z,87.79
2023-02-19T01:53:28.081Z,87.94
2023-02-19T01:55:56.805Z,87.80
2023-02-19T01:58:26.135Z,87.84
2023-02-19T02:00:53.425Z,87.40
2023-02-19T02:03:21.359Z,87.88
2023-02-19T02:05:56.424Z,87.91
2023-02-19T02:08:45.089Z,87.69
2023-02-19T02:11:12.580Z,87.35
2023-02-19T02:13:40.899Z,87.46
2023-02-19T02:16:23.079Z,87.26
2023-02-19T02:18:58.696Z,87.39
2023-02-19T02:21:59.282Z,87.22
2023-02-19T02:24:56.744Z,87.24
2023-02-19T02:28:01.035Z,87.22
2023-02-19T02:30:39.694Z,87.72
2023-02-19T02:33:17.099Z,87.50
2023-02-19T02:35:48.998Z,87.58
2023-02-19T02:38:20.366Z,87.43
2023-02-19T02:40:48.160Z,87.71
2023-02-19T02:43:16.593Z,87.47
2023-02-19T02:45:45.454Z,87.87
2023-02-19T02:48:46.107Z,87.62
2023-02-19T02:51:19.637Z,87.77
2023-02-19T02:54:27.050Z,87.93
2023-02-19T02:56:57.110Z,87.44
2023-02-19T02:59:29.005Z,87.33
2023-02-19T03:02:14.543Z,87.41
2023-02-19T03:05:09.654Z,87.52
2023-02-19T03:07:45.578Z,87.21
2023-02-19T03:10:17.483Z,87.67
2023-02-19T03:13:04.960Z,87.72
2023-02-19T03:15:58.498Z,87.32
2023-02-19T03:18:51.027Z,87.31
2023-02-19T03:21:22.748Z,87.46
2023-02-19T03:24:09.862Z,87.49
2023-02-19T03:26:39.332Z,87.83
2023-02-19T03:29:23.406Z,87.55
2023-02-19T03:31:57.073Z,87.82
2023-02-19T03:34:36.359Z,88.24
2023-02-19T03:37:10.756Z,88.15
2023-02-19T03:39:44.549Z,88.12
2023-02-19T03:42:27.302Z,88.95
2023-02-19T03:45:07.912Z,88.84
2023-02-19T03:47:44.071Z,88.67
2023-02-19T03:50:18.996Z,88.71
2023-02-19T03:52:56.932Z,88.93
2023-02-19T03:55:31.655Z,89.49
2023-02-19T03:58:09.565Z,89.17
2023-02-19T04:00:40.792Z,89.45
2023-02-19T04:03:13.233Z,89.30
2023-02-19T04:05:45.735Z,89.65
2023-02-19T04:08:16.650Z,89.62
2023-02-19T04:10:50.636Z,89.65
2023-02-19T04:13:22.517Z,89.94
2023-02-19T04:15:52.051Z,89.94
2023-02-19T04:18:23.054Z,89.71
2023-02-19T04:20:52.726Z,90.07
2023-02-19T04:23:23.418Z,90.22
2023-02-19T04:25:55.192Z,89.64
2023-02-19T04:28:22.536Z,90.34
2023-02-19T04:30:49.850Z,89.96
2023-02-19T04:33:17.280Z,90.17
2023-02-19T04:35:44.495Z,90.03
2023-02-19T04:38:14.475Z,89.87
2023-02-19T04:40:41.773Z,90.14
2023-02-19T04:43:09.314Z,90.50
2023-02-19T04:45:37.884Z,90.02
2023-02-19T04:48:05.436Z,90.62
2023-02-19T04:50:32.651Z,90.31
2023-02-19T04:52:59.859Z,90.24
2023-02-19T04:55:28.431Z,90.40
2023-02-19T04:57:55.789Z,90.81
2023-02-19T05:00:23.013Z,90.26
2023-02-19T05:02:50.382Z,90.87
2023-02-19T05:05:17.866Z,90.71
2023-02-19T05:07:45.121Z,90.36
2023-02-19T05:10:12.651Z,90.89
2023-02-19T05:12:41.521Z,90.49
2023-02-19T05:15:08.791Z,90.27
2023-02-19T05:17:36.363Z,90.65
2023-02-19T05:20:04.504Z,90.75
2023-02-19T05:22:32.126Z,90.70
2023-02-19T05:24:59.624Z,90.21
2023-02-19T05:27:26.869Z,90.80
2023-02-19T05:29:55.849Z,90.83
2023-02-19T05:32:23.052Z,90.46
2023-02-19T05:34:51.697Z,90.43
2023-02-19T05:37:18.863Z,90.67
2023-02-19T05:39:46.230Z,90.69
2023-02-19T05:42:14.407Z,90.52
2023-02-19T05:44:41.763Z,90.48
2023-02-19T05:47:10.602Z,90.58
2023-02-19T05:49:38.054Z,90.64
2023-02-19T05:52:05.596Z,91.00
2023-02-19T05:54:32.896Z,90.89
2023-02-19T05:57:00.460Z,90.71
2023-02-19T05:59:27.828Z,90.92
2023-02-19T06:01:55.398Z,91.08
2023-02-19T06:04:24.203Z,90.76
2023-02-19T06:06:51.509Z,90.74
2023-02-19T06:09:18.770Z,90.91
2023-02-19T06:11:46.401Z,91.21
2023-02-19T06:14:14.588Z,91.29
2023-02-19T06:16:42.049Z,91.55
2023-02-19T06:19:09.955Z,91.29
2023-02-19T06:21:38.672Z,91.43
2023-02-19T06:24:07.861Z,91.31
2023-02-19T06:26:35.704Z,91.60
2023-02-19T06:29:03.264Z,91.39
2023-02-19T06:31:30.682Z,91.02
2023-02-19T06:33:57.995Z,91.60
2023-02-19T06:36:25.439Z,91.46
2023-02-19T06:38:54.195Z,90.96
2023-02-19T06:41:21.514Z,91.59
2023-02-19T06:43:48.870Z,91.29
2023-02-19T06:46:16.250Z,91.75
2023-02-19T06:48:45.728Z,91.90
2023-02-19T06:51:15.403Z,91.90
2023-02-19T06:53:42.637Z,91.36
2023-02-19T06:56:25.603Z,91.14
2023-02-19T06:58:53.551Z,91.39
2023-02-19T07:01:21.013Z,91.54
2023-02-19T07:03:48.323Z,91.29
2023-02-19T07:06:15.793Z,90.77
2023-02-19T07:08:43.184Z,90.91
2023-02-19T07:11:10.605Z,91.29
2023-02-19T07:13:39.450Z,91.53
2023-02-19T07:16:09.049Z,91.20
2023-02-19T07:18:36.384Z,91.37
2023-02-19T07:21:04.521Z,91.56
2023-02-19T07:23:31.976Z,90.66
2023-02-19T07:25:59.920Z,91.24
2023-02-19T07:28:27.753Z,91.13
2023-02-19T07:31:01.214Z,91.45
2023-02-19T07:33:28.857Z,91.06
2023-02-19T07:35:56.113Z,91.35
2023-02-19T07:38:25.120Z,90.94
2023-02-19T07:40:52.729Z,91.35
2023-02-19T07:43:20.318Z,91.44
2023-02-19T07:45:47.757Z,90.93
2023-02-19T07:48:16.784Z,91.17
2023-02-19T07:50:51.300Z,91.33
2023-02-19T07:53:18.587Z,91.32
2023-02-19T07:55:45.901Z,91.14
2023-02-19T07:58:13.529Z,91.28
2023-02-19T08:00:41.030Z,91.65
2023-02-19T08:03:08.466Z,91.30
2023-02-19T08:05:41.370Z,91.75
2023-02-19T08:08:10.078Z,91.95
2023-02-19T08:10:56.022Z,91.91
2023-02-19T08:13:25.363Z,91.99
2023-02-19T08:15:56.283Z,92.19
2023-02-19T08:18:27.249Z,92.12
2023-02-19T08:20:56.821Z,91.75
2023-02-19T08:23:24.580Z,92.05
2023-02-19T08:25:53.049Z,92.01
2023-02-19T08:28:20.466Z,92.17
2023-02-19T08:30:48.649Z,92.32
2023-02-19T08:33:18.177Z,91.89
2023-02-19T08:35:46.005Z,91.69
2023-02-19T08:38:17.775Z,91.52
2023-02-19T08:40:45.206Z,92.03
2023-02-19T08:43:14.641Z,92.17
2023-02-19T08:45:44.264Z,91.36
2023-02-19T08:48:12.566Z,91.16
2023-02-19T08:50:40.455Z,91.90
2023-02-19T08:53:07.936Z,91.21
2023-02-19T08:55:37.661Z,91.85
2023-02-19T08:58:05.008Z,91.43
2023-02-19T09:00:32.500Z,91.24
2023-02-19T09:02:59.806Z,91.51
2023-02-19T09:05:27.065Z,91.27
2023-02-19T09:07:54.466Z,91.65
2023-02-19T09:10:21.772Z,91.43
2023-02-19T09:12:50.371Z,91.38
2023-02-19T09:15:18.286Z,91.80
2023-02-19T09:17:45.470Z,90.91
2023-02-19T09:20:12.914Z,91.37
2023-02-19T09:22:40.414Z,91.61
2023-02-19T09:25:08.010Z,91.04
2023-02-19T09:27:35.311Z,90.93
2023-02-19T09:30:04.417Z,91.40
2023-02-19T09:32:32.158Z,90.96
2023-02-19T09:34:59.622Z,91.34
2023-02-19T09:37:27.861Z,91.20
2023-02-19T09:39:55.483Z,91.53
2023-02-19T09:42:26.349Z,91.25
2023-02-19T09:44:56.491Z,91.54
2023-02-19T09:47:27.952Z,91.70
2023-02-19T09:49:57.422Z,91.23
2023-02-19T09:52:33.030Z,91.69
2023-02-19T09:55:09.641Z,91.45
2023-02-19T09:57:37.264Z,91.49
2023-02-19T10:00:10.390Z,91.68
2023-02-19T10:02:39.280Z,91.84
2023-02-19T10:05:13.221Z,91.80
2023-02-19T10:07:44.540Z,91.50
2023-02-19T10:10:25.045Z,91.50
2023-02-19T10:12:56.326Z,91.48
2023-02-19T10:15:29.831Z,91.10
2023-02-19T10:17:58.815Z,91.12
2023-02-19T10:20:28.069Z,91.45
2023-02-19T10:23:00.542Z,91.68
2023-02-19T10:25:28.078Z,91.67
2023-02-19T10:27:57.718Z,91.66
2023-02-19T10:30:30.689Z,91.51
2023-02-19T10:33:09.140Z,91.80
2023-02-19T10:35:39.187Z,91.41
2023-02-19T10:38:09.972Z,92.00
2023-02-19T10:40:44.442Z,91.56
2023-02-19T10:43:23.804Z,91.78
2023-02-19T10:45:53.105Z,91.34
2023-02-19T10:48:25.496Z,91.66
2023-02-19T10:51:00.129Z,91.71
2023-02-19T10:53:46.859Z,91.01
2023-02-19T10:56:16.002Z,91.50
2023-02-19T10:58:45.067Z,91.68
2023-02-19T11:01:21.108Z,91.47
2023-02-19T11:03:50.714Z,90.81
2023-02-19T11:06:21.571Z,90.78
2023-02-19T11:08:57.377Z,90.65
2023-02-19T11:11:32.961Z,90.63
2023-02-19T11:14:03.866Z,90.61
2023-02-19T11:16:41.489Z,90.44
2023-02-19T11:19:24.646Z,90.71
2023-02-19T11:21:52.515Z,90.40
2023-02-19T11:24:26.379Z,89.86
2023-02-19T11:26:54.543Z,90.21
2023-02-19T11:29:24.597Z,90.26
2023-02-19T11:31:53.382Z,89.86
2023-02-19T11:34:30.206Z,89.90
2023-02-19T11:37:13.387Z,90.46
2023-02-19T11:39:42.747Z,90.73
2023-02-19T11:42:30.514Z,90.41
2023-02-19T11:45:13.482Z,90.12
2023-02-19T11:48:04.333Z,90.57
2023-02-19T11:50:46.526Z,90.65
2023-02-19T11:53:21.144Z,90.67
2023-02-19T11:55:58.142Z,90.12
2023-02-19T11:58:55.586Z,90.08
2023-02-19T12:01:35.445Z,89.86
2023-02-19T12:04:27.145Z,89.93
2023-02-19T12:07:07.924Z,89.38
2023-02-19T12:09:47.973Z,89.24
2023-02-19T12:12:30.064Z,89.15
2023-02-19T12:15:09.443Z,89.52
2023-02-19T12:17:57.255Z,89.67
2023-02-19T12:20:31.997Z,89.64
2023-02-19T12:23:18.147Z,89.49
2023-02-19T12:25:55.528Z,89.46
2023-02-19T12:28:51.847Z,89.74
2023-02-19T12:31:52.852Z,90.07
2023-02-19T12:34:41.197Z,90.59
2023-02-19T12:37:21.358Z,90.50
2023-02-19T12:40:02.009Z,89.71
2023-02-19T12:42:51.089Z,89.99
2023-02-19T12:45:24.355Z,90.07
2023-02-19T12:48:00.484Z,90.25
2023-02-19T12:50:29.139Z,90.24
2023-02-19T12:53:00.038Z,89.91
2023-02-19T12:55:31.137Z,90.19
2023-02-19T12:58:02.746Z,90.36
2023-02-19T13:00:35.738Z,90.32
2023-02-19T13:03:10.615Z,90.14
2023-02-19T13:05:46.792Z,89.82
2023-02-19T13:08:19.161Z,90.17
2023-02-19T13:10:55.308Z,89.67
2023-02-19T13:13:30.341Z,89.95
2023-02-19T13:16:04.336Z,89.82
2023-02-19T13:18:37.236Z,89.74
2023-02-19T13:21:06.557Z,90.33
2023-02-19T13:23:55.439Z,90.27
2023-02-19T13:26:39.268Z,90.04
2023-02-19T13:29:21.068Z,90.29
2023-02-19T13:32:20.976Z,90.73
2023-02-19T13:35:03.527Z,90.43
2023-02-19T13:37:34.475Z,90.72
2023-02-19T13:40:06.759Z,90.59
2023-02-19T13:42:36.995Z,90.88
2023-02-19T13:45:06.566Z,90.48
2023-02-19T13:47:51.937Z,90.18
2023-02-19T13:50:23.074Z,90.30
2023-02-19T13:52:50.571Z,90.17
2023-02-19T13:55:52.702Z,90.89
2023-02-19T13:58:52.963Z,90.64
2023-02-19T14:01:40.622Z,90.39
2023-02-19T14:04:17.312Z,90.95
2023-02-19T14:07:19.834Z,90.75
2023-02-19T14:09:47.647Z,90.79
2023-02-19T14:12:19.820Z,90.90
2023-02-19T14:14:49.224Z,91.10
2023-02-19T14:17:28.535Z,90.98
2023-02-19T14:20:00.622Z,91.01
2023-02-19T14:23:09.919Z,91.23
2023-02-19T14:25:53.366Z,91.01
2023-02-19T14:28:30.432Z,91.01
2023-02-19T14:31:02.895Z,90.69
2023-02-19T14:33:33.129Z,91.10
2023-02-19T14:36:03.721Z,90.91
2023-02-19T14:38:37.184Z,90.50
2023-02-19T14:41:06.491Z,90.64
2023-02-19T14:43:35.709Z,90.90
2023-02-19T14:46:10.027Z,90.93
2023-02-19T14:48:43.602Z,90.64
2023-02-19T14:51:16.968Z,90.58
2023-02-19T14:53:45.757Z,91.42
2023-02-19T14:56:21.564Z,91.48
2023-02-19T14:59:07.109Z,91.02
2023-02-19T15:01:35.870Z,91.46
2023-02-19T15:04:03.765Z,91.05
2023-02-19T15:06:32.876Z,91.06
2023-02-19T15:09:04.166Z,91.54
2023-02-19T15:11:33.192Z,91.24
2023-02-19T15:14:04.047Z,91.56
2023-02-19T15:16:34.367Z,91.82
2023-02-19T15:19:06.493Z,91.75
2023-02-19T15:21:38.085Z,91.58
2023-02-19T15:24:07.073Z,91.79
2023-02-19T15:26:36.506Z,91.49
2023-02-19T15:29:10.738Z,91.26
2023-02-19T15:31:45.371Z,91.33
2023-02-19T15:34:18.939Z,91.40
2023-02-19T15:36:47.039Z,91.38
2023-02-19T15:39:20.907Z,90.75
2023-02-19T15:41:53.771Z,91.17
2023-02-19T15:44:32.037Z,90.69
2023-02-19T15:47:04.953Z,90.91
2023-02-19T15:49:40.333Z,90.92
2023-02-19T15:52:11.712Z,90.70
2023-02-19T15:54:51.426Z,90.45
2023-02-19T15:57:23.201Z,90.88
2023-02-19T15:59:54.917Z,90.72
2023-02-19T16:02:22.428Z,90.84
2023-02-19T16:04:51.166Z,91.03
2023-02-19T16:07:26.703Z,90.58
2023-02-19T16:10:18.140Z,90.77
2023-02-19T16:12:55.380Z,91.09
2023-02-19T16:15:22.706Z,91.10
2023-02-19T16:17:50.533Z,91.26
2023-02-19T16:20:24.190Z,91.10
2023-02-19T16:22:56.912Z,91.13
2023-02-19T16:25:28.840Z,91.13
2023-02-19T16:27:56.348Z,91.31
2023-02-19T16:30:28.573Z,91.06
2023-02-19T16:33:22.079Z,91.05
2023-02-19T16:35:52.462Z,91.18
2023-02-19T16:38:21.631Z,91.53
2023-02-19T16:41:11.214Z,90.91
2023-02-19T16:43:40.683Z,91.02
2023-02-19T16:46:12.206Z,90.98
2023-02-19T16:48:39.830Z,91.65
2023-02-19T16:51:15.219Z,90.96
2023-02-19T16:53:42.406Z,91.12
2023-02-19T16:56:15.778Z,91.48
2023-02-19T16:58:42.983Z,90.93
2023-02-19T17:01:10.736Z,91.06
2023-02-19T17:03:39.641Z,91.32
2023-02-19T17:06:08.804Z,91.08
2023-02-19T17:08:38.727Z,91.27
2023-02-19T17:11:07.865Z,91.21
2023-02-19T17:13:35.179Z,90.96
2023-02-19T17:16:02.727Z,90.72
2023-02-19T17:18:30.364Z,91.17
2023-02-19T17:21:02.353Z,91.04
2023-02-19T17:23:30.949Z,90.82
2023-02-19T17:25:58.190Z,91.03
2023-02-19T17:28:26.071Z,90.43
2023-02-19T17:30:54.121Z,90.72
2023-02-19T17:33:21.337Z,90.58
2023-02-19T17:35:48.982Z,90.32
2023-02-19T17:38:16.283Z,90.24
2023-02-19T17:40:45.417Z,90.20
2023-02-19T17:43:12.767Z,90.70
2023-02-19T17:45:39.960Z,90.36
2023-02-19T17:48:09.515Z,90.58
2023-02-19T17:50:36.772Z,90.53
2023-02-19T17:53:04.408Z,90.68
2023-02-19T17:55:34.463Z,90.45
2023-02-19T17:58:03.193Z,91.08
2023-02-19T18:00:32.286Z,90.61
2023-02-19T18:02:59.556Z,90.68
2023-02-19T18:05:27.116Z,91.20
2023-02-19T18:07:54.537Z,90.89
2023-02-19T18:10:23.704Z,90.81
2023-02-19T18:12:51.425Z,91.13
2023-02-19T18:15:22.588Z,90.62
2023-02-19T18:17:50.250Z,90.85
2023-02-19T18:20:19.568Z,90.46
2023-02-19T18:22:46.828Z,90.11
2023-02-19T18:25:15.319Z,90.56
2023-02-19T18:27:42.559Z,90.48
2023-02-19T18:30:11.136Z,90.63
2023-02-19T18:32:40.028Z,91.03
2023-02-19T18:35:08.203Z,91.06
2023-02-19T18:37:35.669Z,90.81
2023-02-19T18:40:05.464Z,90.85
2023-02-19T18:42:33.360Z,90.43
2023-02-19T18:45:00.642Z,90.52
2023-02-19T18:47:28.804Z,90.19
2023-02-19T18:49:59.413Z,91.08
2023-02-19T18:52:28.322Z,90.92
2023-02-19T18:54:57.513Z,90.51
2023-02-19T18:57:26.848Z,90.72
2023-02-19T18:59:54.161Z,90.52
2023-02-19T19:02:21.875Z,90.43
2023-02-19T19:04:51.367Z,90.35
2023-02-19T19:07:20.902Z,90.52
2023-02-19T19:09:48.711Z,90.51
2023-02-19T19:12:16.933Z,90.38
2023-02-19T19:14:45.220Z,90.66
2023-02-19T19:17:12.703Z,90.50
2023-02-19T19:19:41.397Z,90.64
2023-02-19T19:22:08.912Z,91.04
2023-02-19T19:24:38.173Z,91.21
2023-02-19T19:27:05.867Z,90.94
2023-02-19T19:29:33.537Z,91.12
2023-02-19T19:32:00.721Z,90.69
2023-02-19T19:34:28.103Z,90.47
2023-02-19T19:36:56.646Z,91.19
2023-02-19T19:39:24.188Z,90.51
2023-02-19T19:41:55.524Z,90.88
2023-02-19T19:44:22.900Z,91.21
2023-02-19T19:46:50.919Z,91.12
2023-02-19T19:49:19.829Z,90.77
2023-02-19T19:51:49.629Z,90.87
2023-02-19T19:54:17.023Z,91.24
2023-02-19T19:56:46.747Z,91.00
2023-02-19T19:59:17.253Z,90.99
2023-02-19T20:01:48.860Z,90.85
2023-02-19T20:04:16.579Z,91.08
2023-02-19T20:06:43.771Z,91.08
2023-02-19T20:09:11.772Z,90.66
2023-02-19T20:11:44.637Z,90.73
2023-02-19T20:14:12.199Z,90.50
2023-02-19T20:16:42.187Z,90.64
2023-02-19T20:19:10.900Z,90.63
2023-02-19T20:21:38.317Z,90.53
2023-02-19T20:24:06.345Z,90.34
2023-02-19T20:26:33.720Z,90.63
2023-02-19T20:29:01.144Z,90.42
2023-02-19T20:31:29.003Z,90.64
2023-02-19T20:33:57.624Z,90.59
2023-02-19T20:36:28.523Z,90.51
2023-02-19T20:38:56.226Z,90.28
2023-02-19T20:41:23.620Z,90.63
2023-02-19T20:43:50.889Z,90.22
2023-02-19T20:46:18.475Z,90.53
2023-02-19T20:48:46.140Z,90.42
2023-02-19T20:51:14.877Z,90.04
2023-02-19T20:53:42.610Z,90.27
2023-02-19T20:56:11.565Z,90.59
2023-02-19T20:58:40.842Z,90.23
2023-02-19T21:01:08.492Z,90.25
2023-02-19T21:03:35.900Z,90.06
2023-02-19T21:06:03.350Z,90.07
2023-02-19T21:08:32.028Z,90.63
2023-02-19T21:10:59.650Z,90.56
2023-02-19T21:13:28.426Z,90.04
2023-02-19T21:15:57.282Z,90.51
2023-02-19T21:18:24.454Z,90.52
2023-02-19T21:20:51.871Z,90.12
2023-02-19T21:23:19.212Z,90.46
2023-02-19T21:25:49.179Z,90.31
2023-02-19T21:28:16.438Z,90.09
2023-02-19T21:30:43.714Z,90.54
2023-02-19T21:33:11.228Z,90.31
2023-02-19T21:35:38.994Z,89.96
2023-02-19T21:38:06.626Z,90.22
2023-02-19T21:40:34.291Z,90.46
2023-02-19T21:43:02.961Z,90.10
2023-02-19T21:45:30.317Z,90.45
2023-02-19T21:47:57.741Z,90.51
2023-02-19T21:50:24.948Z,90.10
2023-02-19T21:52:52.319Z,90.13
2023-02-19T21:55:19.807Z,90.22
2023-02-19T21:57:47.203Z,90.07
2023-02-19T22:00:16.537Z,90.51
2023-02-19T22:02:43.780Z,89.94
2023-02-19T22:05:11.144Z,90.47
2023-02-19T22:07:38.679Z,90.26
2023-02-19T22:10:09.011Z,90.58
2023-02-19T22:12:36.416Z,90.03
2023-02-19T22:15:03.796Z,90.49
2023-02-19T22:17:33.192Z,89.90
2023-02-19T22:20:00.382Z,90.56
2023-02-19T22:22:27.666Z,90.39
2023-02-19T22:24:55.336Z,90.56
2023-02-19T22:27:24.639Z,90.57
2023-02-19T22:29:51.875Z,90.02
2023-02-19T22:32:19.174Z,90.41
2023-02-19T22:34:48.091Z,90.49
2023-02-19T22:37:15.382Z,90.42
2023-02-19T22:39:42.629Z,90.26
2023-02-19T22:42:09.916Z,90.05
2023-02-19T22:44:37.336Z,90.18
2023-02-19T22:47:04.776Z,89.76
2023-02-19T22:49:32.063Z,89.93
2023-02-19T22:52:03.556Z,90.25
2023-02-19T22:54:30.874Z,90.14
2023-02-19T22:56:58.154Z,90.10
2023-02-19T22:59:25.494Z,89.67
2023-02-19T23:01:53.029Z,90.05
2023-02-19T23:04:21.267Z,89.72
2023-02-19T23:06:49.468Z,90.31
2023-02-19T23:09:20.809Z,89.65
2023-02-19T23:11:48.364Z,89.86
2023-02-19T23:14:17.284Z,90.16
2023-02-19T23:16:44.935Z,89.70
2023-02-19T23:19:14.736Z,90.14
2023-02-19T23:21:44.379Z,89.51
2023-02-19T23:24:12.636Z,90.22
2023-02-19T23:26:44.297Z,90.32
2023-02-19T23:29:14.439Z,89.97
2023-02-19T23:31:41.766Z,89.76
2023-02-19T23:34:09.244Z,90.17
2023-02-19T23:36:40.475Z,89.55
2023-02-19T23:39:09.206Z,90.09
2023-02-19T23:41:36.476Z,89.66
2023-02-19T23:44:05.834Z,90.38
2023-02-19T23:46:34.074Z,90.24
2023-02-19T23:49:01.446Z,90.47
2023-02-19T23:51:28.950Z,90.42
2023-02-19T23:53:56.313Z,90.43
2023-02-19T23:56:24.013Z,90.58
2023-02-19T23:58:51.337Z,90.09
